Wetterdaten: aktuell Dienstag, 23.04.2019 10:00
Datum Zeit Temp. A. Feuchte A. Luftdruck Regen Wind Richtung Richtung Sonnenschein UV Solar Taupunkt Windchill Windben
23.04.2019 10:00 14,1 C 43 % 1006,2 hPa 0,0 l/m 16,0 km/h (3 Bft) SO 136 30 min 1,8 UV-I 487 W/m 1,7 C 9,8 C 38,6 km/h (5 Bft)
23.04.2019 09:00 12,2 C 47 % 1006,8 hPa 0,0 l/m 11,6 km/h (2 Bft) O 100 10 min 1,0 UV-I 246 W/m 1,2 C 9,2 C 31,4 km/h (5 Bft)
23.04.2019 08:00 10,2 C 51 % 1007,3 hPa 0,0 l/m 12,6 km/h (3 Bft) O-NO 61 0 min 0,0 UV-I 140 W/m 0,5 C 6,5 C 41,0 km/h (6 Bft)
23.04.2019 07:00 9,1 C 56 % 1007,5 hPa 0,0 l/m 15,4 km/h (3 Bft) O-SO 103 0 min 0,0 UV-I 27 W/m 0,8 C 3,9 C 43,5 km/h (6 Bft)
23.04.2019 06:00 8,8 C 59 % 1008,1 hPa 0,0 l/m 12,1 km/h (2 Bft) O-NO 69 0 min 0,0 UV-I 0 W/m 1,2 C 5,1 C 31,4 km/h (5 Bft)
23.04.2019 05:00 9,0 C 59 % 1008,5 hPa 0,0 l/m 11,9 km/h (2 Bft) O-NO 71 0 min 0,0 UV-I 0 W/m 1,4 C 5,4 C 33,8 km/h (5 Bft)
23.04.2019 04:00 9,2 C 58 % 1009,2 hPa 0,0 l/m 9,7 km/h (2 Bft) O 83 0 min 0,0 UV-I 0 W/m 1,4 C 6,9 C 29,0 km/h (5 Bft)
23.04.2019 03:00 9,7 C 56 % 1009,9 hPa 0,0 l/m 9,0 km/h (2 Bft) O-NO 61 0 min 0,0 UV-I 0 W/m 1,4 C 7,9 C 26,6 km/h (4 Bft)
23.04.2019 02:00 10,3 C 54 % 1010,3 hPa 0,0 l/m 8,1 km/h (2 Bft) O-SO 108 0 min 0,0 UV-I 0 W/m 1,4 C 9,1 C 24,1 km/h (4 Bft)
23.04.2019 01:00 10,7 C 50 % 1010,9 hPa 0,0 l/m 6,8 km/h (2 Bft) NO 55 0 min 0,0 UV-I 0 W/m 0,7 C 10,4 C 24,1 km/h (4 Bft)
23.04.2019 00:00 10,9 C 48 % 1011,5 hPa 0,0 l/m 10,7 km/h (2 Bft) O-NO 69 0 min 0,0 UV-I 0 W/m 0,3 C 8,2 C 36,2 km/h (5 Bft)
22.04.2019 23:00 11,3 C 46 % 1011,9 hPa 0,0 l/m 9,9 km/h (2 Bft) O-SO 106 0 min 0,0 UV-I 0 W/m 0,1 C 9,1 C 29,0 km/h (5 Bft)
22.04.2019 22:00 11,7 C 42 % 1012,5 hPa 0,0 l/m 11,8 km/h (2 Bft) O 95 0 min 0,0 UV-I 0 W/m -0,8 C 8,6 C 33,8 km/h (5 Bft)
22.04.2019 21:00 12,4 C 37 % 1012,7 hPa 0,0 l/m 15,0 km/h (3 Bft) O 81 0 min 0,0 UV-I 0 W/m -1,9 C 8,0 C 31,4 km/h (5 Bft)
22.04.2019 20:00 13,7 C 32 % 1012,7 hPa 0,0 l/m 13,6 km/h (3 Bft) O-NO 78 0 min 0,0 UV-I 14 W/m -2,7 C 10,1 C 48,3 km/h (6 Bft)
22.04.2019 19:00 15,7 C 28 % 1012,2 hPa 0,0 l/m 14,9 km/h (3 Bft) S-SO 165 50 min 0,0 UV-I 134 W/m -2,7 C 12,1 C 43,5 km/h (6 Bft)
22.04.2019 18:00 17,8 C 27 % 1012,2 hPa 0,0 l/m 12,8 km/h (3 Bft) SO 142 60 min 0,8 UV-I 306 W/m -1,4 C 15,2 C 38,6 km/h (5 Bft)
22.04.2019 17:00 18,9 C 31 % 1012,5 hPa 0,0 l/m 17,2 km/h (3 Bft) NO 46 60 min 1,6 UV-I 461 W/m 1,4 C 15,4 C 43,5 km/h (6 Bft)
22.04.2019 16:00 18,9 C 25 % 1013,2 hPa 0,0 l/m 17,8 km/h (3 Bft) O-SO 122 60 min 2,8 UV-I 604 W/m -1,5 C 15,2 C 38,6 km/h (5 Bft)
22.04.2019 15:00 19,1 C 24 % 1013,6 hPa 0,0 l/m 16,4 km/h (3 Bft) O 90 60 min 4,0 UV-I 708 W/m -1,9 C 15,8 C 45,9 km/h (6 Bft)
22.04.2019 14:00 18,8 C 26 % 1014,2 hPa 0,0 l/m 14,5 km/h (3 Bft) SO 132 60 min 4,7 UV-I 760 W/m -1,1 C 15,9 C 38,6 km/h (5 Bft)
22.04.2019 13:00 18,7 C 26 % 1014,9 hPa 0,0 l/m 10,4 km/h (2 Bft) O-NO 78 60 min 4,8 UV-I 770 W/m -1,2 C 17,1 C 31,4 km/h (5 Bft)
22.04.2019 12:00 18,4 C 26 % 1015,4 hPa 0,0 l/m 7,6 km/h (2 Bft) O-SO 120 60 min 4,4 UV-I 728 W/m -1,4 C 17,8 C 26,6 km/h (4 Bft)
22.04.2019 11:00 18,4 C 30 % 1015,6 hPa 0,0 l/m 5,0 km/h (1 Bft) O-SO 105 0 min 3,4 UV-I 639 W/m 0,5 C 18,4 C 14,5 km/h (3 Bft)
_ Min-Zeit 06:00 15:10 10:00 - 11:00 - - - - - 19:50 07:00 11:00
Minimum _ 8,7 C 22 % 1006,2 hPa - 5,0 km/h (1 Bft) - - - - - -3,4 C 3,9 C 14,5 km/h (3 Bft)
_ Max-Zeit 15:40 04:30 11:20 11:00 18:20 - - 11:00 12:40 13:40 09:30 11:00 18:10
Maximum _ 19,4 C 59 % 1015,7 hPa 0,0 l/m 18,9 km/h
SO (3 Bft)
- - 10 min 4,8 UV-I 772 W/m 1,9 C 18,4 C 53,1 km/h
O (7 Bft)
Durchschnitt _ 13,9 C 40 % 1011,6 hPa #0,0 l/m 11,8 km/h (2 Bft) O - #40 min. 0,9 UV-I 114 W/m -0,1 C 11,2 C 33,1 km/h (5 Bft)